Time;durP1;ratioP1;P1;durP2;ratioP2;P2;SDS_P1;SDS_P2;PMS_P1;PMS_P2;Temp;Humidity;BMP_temperature;BMP_pressure;BME280_temperature;BME280_humidity;BME280_pressure;Samples;Min_cycle;Max_cycle;Signal;HPM_P1;HPM_P2
2022/04/03 00:01:25;;;;;;;23.25;14.75;;;0.10;99.90;;;;;;4976391;28;20023;-62
2022/04/03 00:03:51;;;;;;;24.73;16.00;;;0.10;99.90;;;;;;4975718;28;20027;-62
2022/04/03 00:06:18;;;;;;;29.05;16.73;;;0.10;99.90;;;;;;4975582;28;20490;-62
2022/04/03 00:08:44;;;;;;;30.67;21.60;;;0.00;99.90;;;;;;4975376;28;20023;-62
2022/04/03 00:11:10;;;;;;;43.42;24.88;;;0.00;99.90;;;;;;4975645;28;20037;-62
2022/04/03 00:13:39;;;;;;;130.07;74.63;;;0.10;99.90;;;;;;4975626;28;20035;-62
2022/04/03 00:16:06;;;;;;;84.70;53.63;;;0.10;99.90;;;;;;4975556;28;20031;-62
2022/04/03 00:18:32;;;;;;;50.75;33.25;;;0.00;99.90;;;;;;4975533;28;20034;-62
2022/04/03 00:20:59;;;;;;;54.60;35.10;;;0.00;99.90;;;;;;4975180;28;20031;-62
2022/04/03 00:23:25;;;;;;;48.13;28.55;;;-0.10;99.90;;;;;;4975434;28;20026;-62
2022/04/03 00:25:51;;;;;;;37.83;25.17;;;-0.20;99.90;;;;;;4975398;28;20023;-62
2022/04/03 00:28:20;;;;;;;35.58;21.52;;;-0.10;99.90;;;;;;4976204;28;20499;-62
2022/04/03 00:30:46;;;;;;;22.23;14.30;;;-0.20;99.90;;;;;;4974764;28;20400;-62
2022/04/03 00:33:12;;;;;;;22.85;14.57;;;-0.20;99.90;;;;;;4974977;28;20030;-62
2022/04/03 00:35:38;;;;;;;44.25;25.27;;;-0.10;99.90;;;;;;4975029;28;20046;-61
2022/04/03 00:38:04;;;;;;;20.85;11.60;;;-0.30;99.90;;;;;;4975037;28;20484;-62
2022/04/03 00:40:30;;;;;;;12.27;8.63;;;-0.40;99.90;;;;;;4975615;28;20035;-61
2022/04/03 00:42:56;;;;;;;12.32;8.02;;;-0.40;99.90;;;;;;4975378;28;20043;-62
2022/04/03 00:45:22;;;;;;;12.90;7.38;;;-0.50;99.90;;;;;;4974371;28;20408;-62
2022/04/03 00:47:52;;;;;;;13.05;6.90;;;-0.60;99.90;;;;;;4974963;28;20118;-62
2022/04/03 00:50:18;;;;;;;37.90;22.92;;;-0.50;99.90;;;;;;4974920;28;20034;-62
2022/04/03 00:52:44;;;;;;;20.42;13.52;;;-0.40;99.90;;;;;;4973500;28;20181;-62
2022/04/03 00:55:10;;;;;;;85.55;50.13;;;-0.50;99.90;;;;;;4975382;28;20015;-62
2022/04/03 00:57:36;;;;;;;75.95;53.15;;;-0.50;99.90;;;;;;4974367;28;20034;-62
2022/04/03 01:00:04;;;;;;;14.00;9.15;;;-0.50;99.90;;;;;;4973405;28;20038;-62
2022/04/03 01:02:30;;;;;;;11.63;7.47;;;-0.60;99.90;;;;;;4974875;28;20031;-62
2022/04/03 01:04:57;;;;;;;12.55;6.72;;;;;;;;;;4959488;28;20042;-62
2022/04/03 01:07:23;;;;;;;11.05;6.57;;;-3.20;99.90;;;;;;4975154;28;20054;-61
2022/04/03 01:09:49;;;;;;;12.65;7.00;;;-0.60;99.90;;;;;;4974177;28;20031;-62
2022/04/03 01:12:15;;;;;;;10.70;6.45;;;-0.50;99.90;;;;;;4974148;28;20027;-61
2022/04/03 01:14:43;;;;;;;11.00;6.15;;;-0.50;99.90;;;;;;4974333;28;20026;-62
2022/04/03 01:17:12;;;;;;;9.90;5.20;;;;;;;;;;4974394;28;20031;-62
2022/04/03 01:19:38;;;;;;;8.90;5.53;;;;;;;;;;4974417;28;20064;-62
2022/04/03 01:22:05;;;;;;;12.38;5.78;;;;;;;;;;4974872;28;20027;-62
2022/04/03 01:24:31;;;;;;;22.73;19.08;;;;;;;;;;4973582;28;20043;-62
2022/04/03 01:26:58;;;;;;;7.43;5.22;;;;;;;;;;4973725;28;20110;-63
2022/04/03 01:29:24;;;;;;;9.02;5.18;;;;;;;;;;4974290;28;20062;-62
2022/04/03 01:31:51;;;;;;;7.72;5.03;;;;;;;;;;4974042;28;20046;-62
2022/04/03 01:34:17;;;;;;;13.20;5.40;;;;;;;;;;4974391;28;20487;-62
2022/04/03 01:36:44;;;;;;;7.38;4.70;;;;;;;;;;4973945;28;20476;-62
2022/04/03 01:39:11;;;;;;;8.13;5.05;;;-0.80;99.90;;;;;;4972325;28;20046;-62
2022/04/03 01:41:38;;;;;;;12.45;5.15;;;-0.90;99.90;;;;;;4973516;28;20085;-62
2022/04/03 01:44:08;;;;;;;7.78;5.13;;;-0.90;99.90;;;;;;4973958;28;20518;-62
2022/04/03 01:46:34;;;;;;;15.48;10.73;;;-0.90;99.90;;;;;;4973848;28;20404;-62
2022/04/03 01:49:00;;;;;;;17.40;10.52;;;-0.80;99.90;;;;;;4973289;28;20034;-62
2022/04/03 01:51:26;;;;;;;7.32;4.70;;;-1.00;99.90;;;;;;4973512;28;20033;-62
2022/04/03 01:53:52;;;;;;;6.82;4.65;;;-1.00;99.90;;;;;;4973391;28;20025;-61
2022/04/03 01:56:18;;;;;;;50.00;32.22;;;-0.90;99.90;;;;;;4973285;28;20031;-63
2022/04/03 01:58:43;;;;;;;57.35;30.52;;;-1.00;99.90;;;;;;4973768;28;20030;-62
2022/04/03 02:01:09;;;;;;;77.15;40.20;;;-1.00;99.90;;;;;;4974133;28;20042;-62
2022/04/03 02:03:35;;;;;;;51.92;28.83;;;-1.00;99.90;;;;;;4973301;28;20027;-62
2022/04/03 02:06:00;;;;;;;26.23;15.38;;;-0.90;99.90;;;;;;4973262;28;20053;-63
2022/04/03 02:08:27;;;;;;;9.43;6.20;;;-0.90;99.90;;;;;;4973522;28;20055;-62
2022/04/03 02:10:53;;;;;;;9.05;5.10;;;-0.90;99.90;;;;;;4972729;28;20049;-61
2022/04/03 02:13:19;;;;;;;9.23;4.85;;;-0.90;99.90;;;;;;4973738;28;20115;-62
2022/04/03 02:15:45;;;;;;;9.73;4.70;;;-1.00;99.90;;;;;;4973162;28;20105;-62
2022/04/03 02:18:12;;;;;;;7.30;5.25;;;-1.00;99.90;;;;;;4972892;28;20038;-62
2022/04/03 02:20:39;;;;;;;7.32;4.88;;;-1.00;99.90;;;;;;4973335;28;20113;-62
2022/04/03 02:23:05;;;;;;;8.50;4.72;;;-1.00;99.90;;;;;;4973266;28;20547;-62
2022/04/03 02:25:31;;;;;;;7.80;4.18;;;-1.10;99.90;;;;;;4972992;28;20166;-62
2022/04/03 02:27:59;;;;;;;8.30;3.67;;;-1.10;99.90;;;;;;4973333;28;20477;-62
2022/04/03 02:30:25;;;;;;;6.03;3.80;;;-1.20;99.90;;;;;;4972829;28;20035;-62
2022/04/03 02:32:51;;;;;;;5.78;3.83;;;-1.10;99.90;;;;;;4972803;28;20038;-62
2022/04/03 02:35:17;;;;;;;7.20;3.42;;;-1.00;99.90;;;;;;4972624;28;20142;-61
2022/04/03 02:37:43;;;;;;;4.13;3.22;;;-1.00;99.90;;;;;;4973075;28;20027;-62
2022/04/03 02:40:13;;;;;;;5.28;3.60;;;-1.00;99.90;;;;;;4972806;28;20050;-62
2022/04/03 02:42:39;;;;;;;5.60;3.13;;;-1.00;99.90;;;;;;4972419;28;20029;-62
2022/04/03 02:45:06;;;;;;;3.95;3.05;;;-1.10;99.90;;;;;;4972569;28;20380;-61
2022/04/03 02:47:33;;;;;;;5.78;3.30;;;-1.10;99.90;;;;;;4972658;28;20085;-62
2022/04/03 02:49:59;;;;;;;6.05;2.95;;;-1.20;99.90;;;;;;4972876;28;20089;-61
2022/04/03 02:52:25;;;;;;;7.10;2.70;;;-1.20;99.90;;;;;;4973263;28;20031;-61
2022/04/03 02:54:51;;;;;;;4.75;3.25;;;-1.10;99.90;;;;;;4972173;28;20484;-61
2022/04/03 02:57:17;;;;;;;5.85;3.17;;;-1.10;99.90;;;;;;4972211;28;20022;-61
2022/04/03 02:59:44;;;;;;;4.07;2.88;;;-1.20;99.90;;;;;;4972376;28;20038;-62
2022/04/03 03:02:10;;;;;;;5.57;3.42;;;-1.10;99.90;;;;;;4972425;28;20400;-62
2022/04/03 03:04:37;;;;;;;4.90;2.85;;;-1.20;99.90;;;;;;4972540;28;20030;-61
2022/04/03 03:07:07;;;;;;;6.65;3.47;;;-1.10;99.90;;;;;;4972790;28;20026;-61
2022/04/03 03:09:33;;;;;;;4.93;3.10;;;-1.00;99.90;;;;;;4972349;28;20446;-61
2022/04/03 03:11:59;;;;;;;5.07;3.13;;;-1.10;99.90;;;;;;4972365;28;20563;-61
2022/04/03 03:14:26;;;;;;;4.22;3.08;;;-1.10;99.90;;;;;;4972405;28;20019;-61
2022/04/03 03:16:52;;;;;;;7.38;3.45;;;-1.10;99.90;;;;;;4971471;28;20117;-61
2022/04/03 03:19:18;;;;;;;5.47;3.10;;;-1.10;99.90;;;;;;4972690;28;20034;-61
2022/04/03 03:21:45;;;;;;;5.75;3.05;;;-1.00;99.90;;;;;;4972121;28;20407;-61
2022/04/03 03:24:10;;;;;;;6.82;3.28;;;-1.10;99.90;;;;;;4974710;28;20054;-61
2022/04/03 03:26:37;;;;;;;4.47;3.28;;;-1.30;99.90;;;;;;4976474;28;20058;-61
2022/04/03 03:29:03;;;;;;;5.43;3.40;;;-1.30;99.90;;;;;;4976310;28;20910;-61
2022/04/03 03:31:29;;;;;;;5.75;3.25;;;-1.30;99.90;;;;;;4976537;28;20400;-61
2022/04/03 03:33:55;;;;;;;6.53;3.70;;;-1.30;99.90;;;;;;4976196;28;20026;-61
2022/04/03 03:36:21;;;;;;;8.50;4.03;;;-1.30;99.90;;;;;;4976060;28;20496;-61
2022/04/03 03:38:46;;;;;;;6.25;4.05;;;-1.20;99.90;;;;;;4975543;28;20034;-61
2022/04/03 03:41:14;;;;;;;5.90;3.75;;;-1.20;99.90;;;;;;4976191;28;20015;-61
2022/04/03 03:43:40;;;;;;;5.57;4.07;;;-1.20;99.90;;;;;;4976040;28;20551;-61
2022/04/03 03:46:08;;;;;;;7.82;4.40;;;-1.30;99.90;;;;;;4976213;28;20480;-61
2022/04/03 03:48:34;;;;;;;5.63;4.10;;;-1.20;99.90;;;;;;4975805;28;20113;-61
2022/04/03 03:51:00;;;;;;;5.63;3.70;;;-1.10;99.90;;;;;;4975580;28;20033;-61
2022/04/03 03:53:26;;;;;;;6.45;4.20;;;-1.30;99.90;;;;;;4975339;28;20030;-61
2022/04/03 03:55:52;;;;;;;9.00;4.25;;;-1.40;99.90;;;;;;4975723;28;20038;-61
2022/04/03 03:58:17;;;;;;;9.07;4.35;;;-1.50;99.90;;;;;;4976267;28;20050;-61
2022/04/03 04:00:43;;;;;;;6.20;4.68;;;-1.50;99.90;;;;;;4975498;28;20105;-61
2022/04/03 04:03:09;;;;;;;6.20;4.30;;;-1.50;99.90;;;;;;4975364;28;20035;-61
2022/04/03 04:05:35;;;;;;;6.20;4.32;;;-1.40;99.90;;;;;;4975470;28;20459;-61
2022/04/03 04:08:01;;;;;;;5.90;4.32;;;-1.40;99.90;;;;;;4975581;28;20046;-61
2022/04/03 04:10:27;;;;;;;7.15;4.40;;;-1.40;99.90;;;;;;4975528;28;20416;-61
2022/04/03 04:12:53;;;;;;;6.60;4.50;;;-1.50;99.90;;;;;;4974499;28;20468;-61
2022/04/03 04:15:19;;;;;;;8.48;4.85;;;-1.70;99.90;;;;;;4975289;28;20113;-61
2022/04/03 04:17:47;;;;;;;6.10;4.90;;;-1.60;99.90;;;;;;4975160;28;20539;-61
2022/04/03 04:20:15;;;;;;;10.02;5.72;;;-1.50;99.90;;;;;;4975107;28;20493;-61
2022/04/03 04:22:43;;;;;;;7.88;5.40;;;-1.60;99.90;;;;;;4974528;28;20019;-60
2022/04/03 04:25:11;;;;;;;8.50;5.70;;;-1.60;99.90;;;;;;4975749;28;20034;-61
2022/04/03 04:27:38;;;;;;;7.75;5.10;;;-1.50;99.90;;;;;;4975061;28;20097;-61
2022/04/03 04:30:04;;;;;;;6.22;4.68;;;-1.70;99.90;;;;;;4974932;28;20058;-61
2022/04/03 04:32:32;;;;;;;7.28;5.55;;;-1.80;99.90;;;;;;4975180;28;20014;-61
2022/04/03 04:34:57;;;;;;;6.80;5.50;;;-1.90;99.90;;;;;;4974717;28;20039;-61
2022/04/03 04:37:24;;;;;;;8.05;5.53;;;-1.90;99.90;;;;;;4975257;28;20436;-60
2022/04/03 04:39:50;;;;;;;9.07;5.68;;;-2.00;99.90;;;;;;4974739;28;20046;-61
2022/04/03 04:42:15;;;;;;;8.70;6.15;;;-2.00;99.90;;;;;;4974730;28;20019;-61
2022/04/03 04:44:43;;;;;;;9.05;5.47;;;-2.00;99.90;;;;;;4974614;28;20046;-61
2022/04/03 04:47:09;;;;;;;9.43;6.18;;;-2.10;99.90;;;;;;4974581;28;20022;-61
2022/04/03 04:49:35;;;;;;;13.32;9.63;;;-2.20;99.90;;;;;;4974364;28;20031;-61
2022/04/03 04:52:01;;;;;;;16.98;10.93;;;-2.20;99.90;;;;;;4975331;28;20131;-61
2022/04/03 04:54:27;;;;;;;25.20;14.68;;;-2.20;99.90;;;;;;4974606;28;20023;-61
2022/04/03 04:56:56;;;;;;;19.10;11.88;;;-2.20;99.90;;;;;;4974249;28;20031;-61
2022/04/03 04:59:22;;;;;;;14.18;7.88;;;-2.00;99.90;;;;;;4974314;28;20050;-61
2022/04/03 05:01:47;;;;;;;12.15;8.63;;;-1.90;99.90;;;;;;4974835;28;20038;-61
2022/04/03 05:04:13;;;;;;;12.25;7.97;;;-2.00;99.90;;;;;;4974612;28;20033;-61
2022/04/03 05:06:40;;;;;;;12.77;7.75;;;-2.10;99.90;;;;;;4974366;28;20026;-61
2022/04/03 05:09:06;;;;;;;13.98;7.20;;;-2.00;99.90;;;;;;4974151;28;20039;-61
2022/04/03 05:11:33;;;;;;;12.23;7.25;;;-2.00;99.90;;;;;;4974198;28;20026;-61
2022/04/03 05:13:59;;;;;;;9.15;6.70;;;-2.00;99.90;;;;;;4974659;28;20186;-61
2022/04/03 05:16:25;;;;;;;9.32;6.60;;;-2.00;99.90;;;;;;4974684;28;20106;-61
2022/04/03 05:18:52;;;;;;;10.80;6.60;;;-2.00;99.90;;;;;;4973621;28;20125;-60
2022/04/03 05:21:18;;;;;;;9.32;6.60;;;-2.00;99.90;;;;;;4974677;28;20395;-61
2022/04/03 05:23:44;;;;;;;9.23;6.15;;;-2.10;99.90;;;;;;4973902;28;20027;-61
2022/04/03 05:26:10;;;;;;;10.75;7.20;;;-2.10;99.90;;;;;;4974198;28;20026;-61
2022/04/03 05:28:36;;;;;;;13.10;9.40;;;-2.10;99.90;;;;;;4974053;28;20447;-61
2022/04/03 05:31:03;;;;;;;19.70;14.07;;;-2.10;99.90;;;;;;4974308;28;20105;-60
2022/04/03 05:33:29;;;;;;;17.00;12.80;;;-2.10;99.90;;;;;;4973395;28;20027;-61
2022/04/03 05:35:54;;;;;;;24.17;15.77;;;-2.10;99.90;;;;;;4973837;28;20475;-61
2022/04/03 05:38:20;;;;;;;26.33;17.98;;;-2.10;99.90;;;;;;4973701;28;20031;-61
2022/04/03 05:40:46;;;;;;;31.50;21.73;;;-2.10;99.90;;;;;;4973708;28;20514;-61
2022/04/03 05:43:12;;;;;;;155.38;108.40;;;-2.10;99.90;;;;;;4974275;28;20034;-61
2022/04/03 05:45:38;;;;;;;72.70;55.65;;;-2.10;99.90;;;;;;4972761;28;20031;-61
2022/04/03 05:48:07;;;;;;;40.72;29.30;;;-2.00;99.90;;;;;;4973155;28;20476;-61
2022/04/03 05:50:33;;;;;;;18.17;12.57;;;-2.00;99.90;;;;;;4973603;28;20022;-61
2022/04/03 05:52:59;;;;;;;16.95;9.98;;;-2.00;99.90;;;;;;4973570;28;20039;-61
2022/04/03 05:55:25;;;;;;;15.30;9.77;;;-2.00;99.90;;;;;;4974093;28;20042;-60
2022/04/03 05:57:52;;;;;;;15.05;8.73;;;;;;;;;;4973422;28;20035;-61
2022/04/03 06:00:20;;;;;;;13.32;9.00;;;;;;;;;;4973088;28;20089;-61
2022/04/03 06:02:53;;;;;;;13.18;8.65;;;-1.80;99.90;;;;;;4972822;28;20113;-61
2022/04/03 06:05:35;;;;;;;15.85;8.95;;;-1.40;99.90;;;;;;4973452;28;20113;-61
2022/04/03 06:08:02;;;;;;;13.48;9.13;;;-0.80;99.90;;;;;;4958802;28;20495;-61
2022/04/03 06:10:29;;;;;;;16.13;9.70;;;-0.60;99.90;;;;;;4973452;28;20030;-61
2022/04/03 06:13:09;;;;;;;15.15;9.60;;;0.10;99.90;;;;;;4972900;28;20115;-62
2022/04/03 06:15:40;;;;;;;13.80;9.38;;;1.20;99.90;;;;;;4973454;28;20019;-62
2022/04/03 06:18:07;;;;;;;12.48;8.43;;;1.80;99.90;;;;;;4972592;28;20038;-61
2022/04/03 06:20:33;;;;;;;14.25;8.82;;;2.20;99.90;;;;;;4972868;28;20030;-62
2022/04/03 06:23:00;;;;;;;12.13;9.30;;;3.10;99.90;;;;;;4973223;28;20023;-61
2022/04/03 06:25:26;;;;;;;13.85;9.02;;;3.30;99.90;;;;;;4973721;28;20054;-62
2022/04/03 06:27:53;;;;;;;11.50;8.10;;;3.30;99.90;;;;;;4973210;28;20085;-61
2022/04/03 06:30:19;;;;;;;12.48;8.88;;;4.10;99.90;;;;;;4972717;28;20415;-61
2022/04/03 06:32:45;;;;;;;14.27;10.80;;;4.30;99.90;;;;;;4972499;28;20034;-64
2022/04/03 06:35:11;;;;;;;15.30;10.13;;;4.70;99.90;;;;;;4972641;28;20431;-62
2022/04/03 06:37:37;;;;;;;12.82;8.93;;;5.20;99.90;;;;;;4972994;28;20166;-62
2022/04/03 06:40:04;;;;;;;23.33;18.48;;;;;;;;;;4973449;28;20046;-61
2022/04/03 06:42:31;;;;;;;27.70;23.63;;;;;;;;;;4972677;28;20038;-61
2022/04/03 06:44:58;;;;;;;40.17;34.85;;;;;;;;;;4972701;28;20054;-62
2022/04/03 06:47:24;;;;;;;181.57;146.25;;;;;;;;;;4972417;28;20487;-62
2022/04/03 06:49:50;;;;;;;50.83;42.42;;;8.10;99.90;;;;;;4972518;28;20043;-61
2022/04/03 06:52:16;;;;;;;26.25;20.60;;;;;;;;;;4973303;28;20085;-61
2022/04/03 06:54:42;;;;;;;19.58;16.65;;;8.10;99.90;;;;;;4972515;28;20038;-61
2022/04/03 06:57:08;;;;;;;19.17;17.20;;;8.30;99.90;;;;;;4971993;28;20031;-62
2022/04/03 06:59:34;;;;;;;44.50;39.95;;;8.30;99.90;;;;;;4971958;28;20403;-61
2022/04/03 07:02:01;;;;;;;30.58;27.33;;;9.10;99.90;;;;;;4972249;28;20033;-61
2022/04/03 07:04:26;;;;;;;19.30;16.95;;;9.60;99.60;;;;;;4973052;28;20042;-62
2022/04/03 07:06:52;;;;;;;21.35;19.15;;;9.90;98.90;;;;;;4972936;28;20027;-61
2022/04/03 07:09:18;;;;;;;23.02;19.88;;;;;;;;;;4971765;28;20054;-61
2022/04/03 07:11:44;;;;;;;21.27;17.55;;;10.80;99.90;;;;;;4972704;28;20395;-62
2022/04/03 07:14:09;;;;;;;25.55;20.13;;;11.00;95.60;;;;;;4972501;28;20033;-61
2022/04/03 07:16:35;;;;;;;28.42;23.35;;;11.40;96.60;;;;;;4972391;28;20027;-62
2022/04/03 07:19:01;;;;;;;29.88;23.70;;;11.70;95.10;;;;;;4972821;28;20034;-62
2022/04/03 07:21:26;;;;;;;27.73;19.90;;;11.40;94.80;;;;;;4972692;28;20026;-62
2022/04/03 07:23:52;;;;;;;27.42;18.98;;;11.40;96.00;;;;;;4972235;28;20050;-61
2022/04/03 07:26:18;;;;;;;24.27;16.88;;;11.80;94.70;;;;;;4972502;28;20499;-62
2022/04/03 07:28:43;;;;;;;24.70;16.58;;;10.90;96.00;;;;;;4972039;28;20057;-62
2022/04/03 07:31:09;;;;;;;18.80;14.50;;;11.80;95.30;;;;;;4972549;28;20038;-62
2022/04/03 07:33:35;;;;;;;16.95;13.05;;;12.20;95.20;;;;;;4972242;28;20392;-62
2022/04/03 07:36:02;;;;;;;15.95;12.55;;;12.30;94.00;;;;;;4972245;28;20136;-62
2022/04/03 07:38:28;;;;;;;11.35;10.13;;;12.60;93.20;;;;;;4972099;28;20019;-62
2022/04/03 07:40:54;;;;;;;15.57;10.38;;;12.60;94.90;;;;;;4971759;28;20042;-61
2022/04/03 07:43:20;;;;;;;13.27;10.35;;;13.80;92.50;;;;;;4972985;28;20366;-62
2022/04/03 07:45:46;;;;;;;11.95;9.27;;;13.70;93.10;;;;;;4971807;28;20093;-62
2022/04/03 07:48:12;;;;;;;26.58;16.98;;;14.50;90.70;;;;;;4971920;28;20034;-63
2022/04/03 07:50:38;;;;;;;13.73;10.15;;;15.00;90.20;;;;;;4972004;28;20046;-62
2022/04/03 07:53:05;;;;;;;15.73;10.20;;;14.70;90.10;;;;;;4972337;28;20492;-62
2022/04/03 07:55:31;;;;;;;9.65;6.80;;;16.80;84.30;;;;;;4972295;28;20030;-62
2022/04/03 07:57:57;;;;;;;12.45;8.35;;;15.70;88.50;;;;;;4972307;28;20034;-62
2022/04/03 08:00:23;;;;;;;29.13;25.77;;;15.70;87.60;;;;;;4971913;28;20035;-62
2022/04/03 08:02:48;;;;;;;7.72;6.43;;;14.50;89.40;;;;;;4972068;28;20396;-63
2022/04/03 08:05:14;;;;;;;11.25;7.78;;;15.20;85.80;;;;;;4972002;28;20034;-62
2022/04/03 08:07:46;;;;;;;11.43;6.55;;;15.50;86.70;;;;;;4972309;28;20019;-62
2022/04/03 08:10:15;;;;;;;7.55;6.18;;;14.10;88.20;;;;;;4973647;28;20031;-62
2022/04/03 08:12:42;;;;;;;9.07;6.70;;;16.50;83.30;;;;;;4975382;28;20057;-62
2022/04/03 08:15:10;;;;;;;11.85;8.13;;;15.70;83.00;;;;;;4975516;28;20555;-62
2022/04/03 08:17:38;;;;;;;8.70;6.90;;;15.70;83.30;;;;;;4975455;28;20033;-62
2022/04/03 08:20:05;;;;;;;8.73;6.63;;;16.60;82.10;;;;;;4975418;28;20477;-62
2022/04/03 08:22:31;;;;;;;7.97;6.78;;;16.20;82.10;;;;;;4975844;28;20027;-62
2022/04/03 08:24:57;;;;;;;6.35;5.57;;;16.20;79.50;;;;;;4975703;28;20436;-62
2022/04/03 08:27:23;;;;;;;8.35;7.00;;;17.20;80.10;;;;;;4974975;28;20030;-62
2022/04/03 08:29:49;;;;;;;9.52;7.32;;;16.90;75.50;;;;;;4975124;28;20118;-65
2022/04/03 08:32:15;;;;;;;8.98;6.70;;;16.40;80.50;;;;;;4974020;28;20026;-63
2022/04/03 08:34:41;;;;;;;9.15;6.32;;;16.40;80.00;;;;;;4975292;28;20059;-63
2022/04/03 08:37:07;;;;;;;7.07;5.85;;;19.10;76.50;;;;;;4975526;28;20038;-64
2022/04/03 08:39:33;;;;;;;7.78;5.40;;;18.80;71.60;;;;;;4974922;28;20395;-63
2022/04/03 08:41:59;;;;;;;8.18;6.22;;;17.60;70.00;;;;;;4974731;28;20385;-62
2022/04/03 08:44:25;;;;;;;11.48;7.13;;;18.30;73.10;;;;;;4975442;28;20121;-62
2022/04/03 08:46:51;;;;;;;14.68;8.73;;;17.30;70.00;;;;;;4974947;28;20536;-62
2022/04/03 08:49:19;;;;;;;7.35;6.00;;;16.50;71.60;;;;;;4975003;28;20038;-61
2022/04/03 08:51:47;;;;;;;11.98;8.02;;;15.60;74.70;;;;;;4974677;28;20031;-62
2022/04/03 08:54:17;;;;;;;8.45;6.75;;;15.90;74.80;;;;;;4974697;28;20099;-63
2022/04/03 08:56:43;;;;;;;12.80;8.70;;;16.70;71.40;;;;;;4967724;28;20046;-63
2022/04/03 08:59:09;;;;;;;9.40;7.28;;;17.50;70.50;;;;;;4974492;28;20031;-64
2022/04/03 09:01:35;;;;;;;9.10;6.78;;;14.90;74.00;;;;;;4974744;28;20102;-62
2022/04/03 09:04:01;;;;;;;7.72;6.65;;;15.30;73.70;;;;;;4974875;28;20041;-64
2022/04/03 09:06:27;;;;;;;7.75;6.15;;;16.40;73.60;;;;;;4973636;28;20027;-64
2022/04/03 09:08:53;;;;;;;6.68;5.97;;;15.70;71.30;;;;;;4972989;28;20031;-62
2022/04/03 09:11:19;;;;;;;8.48;6.60;;;16.00;73.20;;;;;;4974016;28;20042;-62
2022/04/03 09:13:45;;;;;;;7.45;6.47;;;16.30;73.30;;;;;;4973705;28;20034;-64
2022/04/03 09:16:12;;;;;;;11.43;6.53;;;15.60;74.20;;;;;;4974881;28;20094;-63
2022/04/03 09:18:49;;;;;;;10.00;7.88;;;15.10;73.70;;;;;;4974429;28;20031;-63
2022/04/03 09:21:23;;;;;;;13.07;9.15;;;14.70;74.10;;;;;;4972924;28;20086;-64
2022/04/03 09:24:02;;;;;;;19.02;11.02;;;15.20;73.30;;;;;;4973418;28;20388;-67
2022/04/03 09:26:29;;;;;;;9.43;7.07;;;14.90;74.50;;;;;;4968838;28;20513;-64
2022/04/03 09:29:15;;;;;;;10.15;7.00;;;13.90;76.80;;;;;;4973554;28;20043;-62
2022/04/03 09:31:43;;;;;;;9.55;7.35;;;14.70;75.70;;;;;;4970452;28;20069;-64
2022/04/03 09:34:15;;;;;;;8.05;6.47;;;14.30;74.60;;;;;;4971073;28;20023;-63
2022/04/03 09:36:41;;;;;;;11.60;8.77;;;13.20;76.90;;;;;;4972900;28;20035;-62
2022/04/03 09:39:10;;;;;;;10.07;7.00;;;12.90;79.80;;;;;;4973075;28;20119;-64
2022/04/03 09:42:03;;;;;;;8.93;6.68;;;13.80;77.30;;;;;;4972839;28;20042;-65
2022/04/03 09:44:40;;;;;;;7.10;5.97;;;11.80;78.70;;;;;;4972282;28;20027;-63
2022/04/03 09:47:17;;;;;;;7.38;5.93;;;11.60;76.80;;;;;;4959884;28;20435;-63
2022/04/03 09:49:45;;;;;;;9.45;6.25;;;12.70;76.20;;;;;;4973305;28;20411;-63
2022/04/03 09:52:11;;;;;;;8.55;6.60;;;12.90;75.20;;;;;;4973937;28;20027;-63
2022/04/03 09:54:40;;;;;;;9.70;6.53;;;12.20;76.80;;;;;;4971290;28;20033;-63
2022/04/03 09:57:23;;;;;;;9.48;6.80;;;13.30;76.20;;;;;;4973129;28;20411;-63
2022/04/03 09:59:54;;;;;;;6.95;6.25;;;12.40;75.80;;;;;;4973034;28;20038;-61
2022/04/03 10:02:20;;;;;;;10.63;6.80;;;12.60;75.60;;;;;;4973494;28;20408;-62
2022/04/03 10:04:47;;;;;;;7.85;6.35;;;12.50;76.80;;;;;;4971410;28;20034;-63
2022/04/03 10:07:14;;;;;;;8.55;6.43;;;12.40;76.50;;;;;;4972294;28;20567;-63
2022/04/03 10:09:49;;;;;;;7.63;6.40;;;12.50;73.80;;;;;;4972723;28;20514;-63
2022/04/03 10:12:22;;;;;;;7.72;6.38;;;11.80;75.40;;;;;;4972137;28;20026;-63
2022/04/03 10:14:49;;;;;;;;;;;12.70;73.20;;;;;;4972631;28;20039;-63
2022/04/03 10:17:16;;;;;;;8.98;6.93;;;11.90;74.10;;;;;;4967938;28;19910;-63
2022/04/03 10:19:42;;;;;;;9.43;7.07;;;9.80;78.70;;;;;;4972450;28;20518;-61
2022/04/03 10:22:17;;;;;;;29.40;26.48;;;9.70;81.80;;;;;;4970546;28;20029;-62
2022/04/03 10:24:48;;;;;;;9.85;8.82;;;12.70;76.90;;;;;;4970862;28;20035;-61
2022/04/03 10:27:19;;;;;;;17.38;15.77;;;12.80;72.80;;;;;;4971160;28;20038;-60
2022/04/03 10:29:48;;;;;;;7.45;6.68;;;12.50;76.20;;;;;;4971523;28;20109;-61
2022/04/03 10:32:24;;;;;;;7.70;6.88;;;10.80;76.60;;;;;;4971977;28;20495;-60
2022/04/03 10:34:56;;;;;;;8.68;7.78;;;11.30;75.40;;;;;;4971968;28;20051;-61
2022/04/03 10:37:26;;;;;;;11.70;10.50;;;12.70;72.60;;;;;;4971138;28;20027;-61
2022/04/03 10:39:54;;;;;;;8.55;7.70;;;10.50;77.90;;;;;;4970042;28;20043;-63
2022/04/03 10:42:25;;;;;;;9.80;8.90;;;9.90;78.80;;;;;;4972374;28;20396;-62
2022/04/03 10:45:12;;;;;;;11.60;10.40;;;10.50;77.70;;;;;;4972255;28;20035;-62
2022/04/03 10:47:42;;;;;;;9.98;7.63;;;9.70;78.20;;;;;;4972411;28;20023;-65
2022/04/03 10:50:10;;;;;;;8.27;7.47;;;10.30;78.10;;;;;;4972630;28;20114;-63
2022/04/03 10:52:38;;;;;;;9.23;8.32;;;9.10;78.50;;;;;;4972394;28;20113;-59
2022/04/03 10:55:25;;;;;;;10.05;8.80;;;9.00;79.10;;;;;;4972258;28;20034;-61
2022/04/03 10:57:54;;;;;;;14.60;13.05;;;9.80;78.80;;;;;;4972336;28;20069;-63
2022/04/03 11:00:20;;;;;;;8.52;7.55;;;11.40;75.20;;;;;;4972446;28;20042;-63
2022/04/03 11:02:57;;;;;;;12.68;11.40;;;11.30;75.10;;;;;;4972089;28;20026;-63
2022/04/03 11:05:32;;;;;;;35.17;30.38;;;12.30;74.90;;;;;;4972330;28;20407;-63
2022/04/03 11:08:00;;;;;;;97.55;68.38;;;12.50;74.30;;;;;;4956914;28;20022;-60
2022/04/03 11:10:57;;;;;;;130.35;90.57;;;11.70;72.20;;;;;;4969448;28;20038;-60
2022/04/03 11:13:25;;;;;;;9.93;8.45;;;11.20;74.70;;;;;;4972471;28;20031;-60
2022/04/03 11:15:56;;;;;;;20.98;17.42;;;9.90;75.70;;;;;;4971919;28;20122;-60
2022/04/03 11:18:38;;;;;;;8.75;7.95;;;9.20;78.40;;;;;;4971876;28;20058;-61
2022/04/03 11:21:10;;;;;;;91.60;67.22;;;9.70;78.50;;;;;;4971806;28;20039;-63
2022/04/03 11:23:41;;;;;;;8.35;7.60;;;9.90;81.10;;;;;;4972449;28;20492;-63
2022/04/03 11:26:07;;;;;;;9.40;8.40;;;9.90;76.30;;;;;;4972410;28;20030;-62
2022/04/03 11:28:36;;;;;;;14.85;10.68;;;10.10;75.60;;;;;;4972278;28;20034;-63
2022/04/03 11:31:04;;;;;;;16.10;11.48;;;9.30;76.00;;;;;;4971893;28;20027;-63
2022/04/03 11:33:31;;;;;;;8.65;7.82;;;9.60;78.60;;;;;;4972435;28;20031;-63
2022/04/03 11:36:08;;;;;;;10.93;9.65;;;10.10;76.50;;;;;;4970451;28;20404;-62
2022/04/03 11:38:39;;;;;;;8.75;7.22;;;9.10;78.80;;;;;;4971403;28;20015;-62
2022/04/03 11:41:34;;;;;;;7.95;7.25;;;9.20;78.20;;;;;;4972401;28;20038;-63
2022/04/03 11:44:15;;;;;;;7.88;6.65;;;9.30;77.40;;;;;;4957946;28;20027;-62
2022/04/03 11:46:46;;;;;;;7.68;6.82;;;9.10;77.10;;;;;;4975785;28;20054;-62
2022/04/03 11:49:25;;;;;;;7.25;6.53;;;9.30;77.90;;;;;;4974970;28;20384;-62
2022/04/03 11:52:06;;;;;;;7.13;6.45;;;9.80;77.00;;;;;;4975279;28;20098;-63
2022/04/03 11:54:33;;;;;;;7.47;6.85;;;10.80;77.80;;;;;;4975246;28;20035;-62
2022/04/03 11:57:03;;;;;;;9.32;7.20;;;10.50;77.40;;;;;;4975101;28;20110;-62
2022/04/03 11:59:33;;;;;;;7.75;6.90;;;10.40;76.90;;;;;;4975191;28;20050;-63
2022/04/03 12:02:07;;;;;;;7.78;7.07;;;9.20;79.00;;;;;;4960521;28;20488;-62
2022/04/03 12:04:38;;;;;;;10.48;9.35;;;8.80;79.80;;;;;;4972336;28;20031;-61
2022/04/03 12:07:04;;;;;;;9.57;7.85;;;9.30;80.50;;;;;;4975558;28;20451;-63
2022/04/03 12:09:32;;;;;;;8.43;7.53;;;9.20;80.70;;;;;;4975817;28;20055;-62
2022/04/03 12:12:04;;;;;;;9.15;7.57;;;9.50;79.80;;;;;;4975340;28;20038;-63
2022/04/03 12:14:31;;;;;;;9.10;8.20;;;8.90;79.00;;;;;;4975343;28;20122;-62
2022/04/03 12:17:00;;;;;;;9.27;8.38;;;9.20;79.20;;;;;;4990979;28;20070;-62
2022/04/03 12:19:28;;;;;;;9.32;8.38;;;10.00;80.90;;;;;;4971494;28;20034;-59
2022/04/03 12:22:00;;;;;;;9.50;8.50;;;9.70;78.50;;;;;;4975516;28;20031;-60
2022/04/03 12:24:27;;;;;;;10.75;8.43;;;9.80;80.60;;;;;;4975021;28;20053;-60
2022/04/03 12:26:57;;;;;;;9.35;8.40;;;9.30;82.20;;;;;;4975179;28;20054;-60
2022/04/03 12:29:27;;;;;;;9.50;8.60;;;9.50;80.40;;;;;;4974987;28;20054;-60
2022/04/03 12:32:07;;;;;;;8.15;7.35;;;9.00;81.10;;;;;;4973966;28;20519;-63
2022/04/03 12:34:38;;;;;;;8.82;8.02;;;8.80;82.60;;;;;;4971149;28;20534;-63
2022/04/03 12:37:05;;;;;;;8.90;8.00;;;8.70;82.10;;;;;;4974515;28;20035;-63
2022/04/03 12:39:35;;;;;;;9.20;8.40;;;8.50;82.50;;;;;;4974609;28;20495;-63
2022/04/03 12:42:17;;;;;;;9.38;8.48;;;8.40;82.00;;;;;;4974623;28;20031;-60
2022/04/03 12:44:55;;;;;;;10.27;9.27;;;8.60;82.40;;;;;;4974693;28;20027;-60
2022/04/03 12:47:29;;;;;;;11.70;10.50;;;9.10;83.00;;;;;;4974488;28;20035;-60
2022/04/03 12:50:07;;;;;;;10.45;8.98;;;9.30;79.50;;;;;;4974304;28;20495;-61
2022/04/03 12:52:41;;;;;;;9.55;8.55;;;9.00;80.50;;;;;;4971834;28;20035;-61